Time;durP1;ratioP1;P1;durP2;ratioP2;P2;SDS_P1;SDS_P2;PMS_P1;PMS_P2;Temp;Humidity;BMP_temperature;BMP_pressure;BME280_temperature;BME280_humidity;BME280_pressure;Samples;Min_cycle;Max_cycle;Signal;HPM_P1;HPM_P2
2021/05/05 00:00:00;;;;;;;6.33;1.90;;;;;;;8.38;70.49;99189.77;1760189;78;26688;-63
2021/05/05 00:02:28;;;;;;;7.42;2.08;;;;;;;8.37;70.56;99182.23;1753157;79;26082;-63
2021/05/05 00:04:56;;;;;;;5.75;2.30;;;;;;;8.39;70.65;99180.33;1769085;79;25847;-63
2021/05/05 00:07:24;;;;;;;5.70;2.40;;;;;;;8.40;70.72;99182.05;1767701;79;28372;-63
2021/05/05 00:09:54;;;;;;;9.20;2.22;;;;;;;8.42;70.72;99179.30;1783891;78;25818;-63
2021/05/05 00:12:22;;;;;;;8.00;2.12;;;;;;;8.43;70.76;99173.01;1757601;80;25846;-63
2021/05/05 00:14:51;;;;;;;5.83;2.35;;;;;;;8.45;70.80;99171.97;1763168;79;25922;-63
2021/05/05 00:17:19;;;;;;;5.15;2.27;;;;;;;8.47;71.13;99165.20;1766071;80;26424;-63
2021/05/05 00:19:48;;;;;;;4.05;2.27;;;;;;;8.51;70.92;99165.89;1800623;76;27333;-63
2021/05/05 00:22:16;;;;;;;8.25;2.95;;;;;;;8.51;70.91;99163.22;1748683;80;26286;-63
2021/05/05 00:24:44;;;;;;;5.10;2.15;;;;;;;8.51;70.96;99168.56;1745039;79;25797;-62
2021/05/05 00:27:12;;;;;;;4.42;1.92;;;;;;;8.51;70.99;99165.41;1767559;79;25978;-63
2021/05/05 00:29:40;;;;;;;3.52;2.10;;;;;;;8.51;71.02;99162.74;1776148;78;25792;-63
2021/05/05 00:32:09;;;;;;;4.05;2.47;;;;;;;8.52;71.07;99165.80;1769362;80;27870;-63
2021/05/05 00:34:37;;;;;;;8.68;2.65;;;;;;;8.51;71.05;99165.89;1762360;78;25824;-63
2021/05/05 00:37:07;;;;;;;5.35;2.42;;;;;;;8.42;71.11;99159.27;1765882;79;26332;-62
2021/05/05 00:39:35;;;;;;;6.28;2.20;;;;;;;8.50;71.19;99165.03;1780055;79;26664;-63
2021/05/05 00:42:04;;;;;;;7.28;2.12;;;;;;;8.52;71.15;99171.14;1780937;78;25782;-63
2021/05/05 00:44:32;;;;;;;6.33;2.27;;;;;;;8.54;71.20;99170.58;1792481;78;27897;-63
2021/05/05 00:47:01;;;;;;;3.65;2.30;;;;;;;8.56;71.18;99174.49;1752650;80;25845;-63
2021/05/05 00:49:30;;;;;;;5.35;2.50;;;;;;;8.53;71.14;99171.52;1742130;80;26304;-63
2021/05/05 00:51:59;;;;;;;4.80;1.87;;;;;;;8.49;71.22;99166.45;1765028;79;26391;-63
2021/05/05 00:54:27;;;;;;;3.25;1.62;;;;;;;8.45;71.25;99158.62;1768987;79;25795;-63
2021/05/05 00:56:59;;;;;;;4.87;1.95;;;;;;;8.45;71.26;99159.95;1731818;79;28430;-63
2021/05/05 00:59:26;;;;;;;5.10;2.02;;;;;;;8.43;71.33;99152.98;1752709;80;26120;-64
2021/05/05 01:01:54;;;;;;;7.37;2.77;;;;;;;8.42;71.26;99155.27;1772605;78;25833;-64
2021/05/05 01:04:22;;;;;;;5.05;2.00;;;;;;;8.41;71.30;99151.73;1766811;78;25843;-64
2021/05/05 01:06:50;;;;;;;4.12;1.47;;;;;;;8.41;71.33;99151.73;1749832;79;25833;-63
2021/05/05 01:09:20;;;;;;;4.85;1.72;;;;;;;8.41;71.28;99149.55;1763909;79;28244;-62
2021/05/05 01:11:49;;;;;;;3.40;1.70;;;;;;;8.40;71.28;99153.16;1760372;78;25967;-62
2021/05/05 01:14:17;;;;;;;5.20;1.50;;;;;;;8.38;71.26;99151.05;1769710;79;25842;-62
2021/05/05 01:16:47;;;;;;;13.18;2.47;;;;;;;8.36;71.27;99143.61;1766725;78;25732;-62
2021/05/05 01:19:15;;;;;;;8.93;2.00;;;;;;;8.33;71.26;99150.47;1762742;79;25901;-62
2021/05/05 01:21:44;;;;;;;2.92;1.50;;;;;;;8.31;71.32;99146.98;1759029;79;27866;-62
2021/05/05 01:24:12;;;;;;;4.75;1.72;;;;;;;8.29;71.32;99144.41;1764222;79;26484;-62
2021/05/05 01:26:42;;;;;;;4.83;1.60;;;;;;;8.27;71.33;99138.30;1754746;79;26027;-62
2021/05/05 01:29:11;;;;;;;2.85;1.27;;;;;;;8.27;71.38;99146.78;1733690;80;25888;-62
2021/05/05 01:31:38;;;;;;;5.20;1.95;;;;;;;8.31;71.42;99148.33;1733278;81;26407;-62
2021/05/05 01:34:08;;;;;;;1.95;1.60;;;;;;;8.29;71.42;99142.21;1771183;79;27679;-62
2021/05/05 01:36:40;;;;;;;6.00;1.85;;;;;;;8.27;71.45;99143.63;1763484;79;25936;-62
2021/05/05 01:39:14;;;;;;;7.58;1.70;;;;;;;8.27;71.44;99150.78;1735584;81;26397;-62
2021/05/05 01:41:42;;;;;;;3.85;1.60;;;;;;;8.25;71.45;99140.20;1729002;81;25822;-62
2021/05/05 01:44:11;;;;;;;4.50;1.65;;;;;;;8.24;71.50;99138.47;1741158;81;25840;-61
2021/05/05 01:46:46;;;;;;;2.00;1.60;;;;;;;8.24;71.52;99141.62;1708067;81;27493;-62
2021/05/05 01:49:09;;;;;;;4.27;2.03;;;;;;;8.24;71.57;99136.28;1732171;80;25833;-62
2021/05/05 01:51:37;;;;;;;5.60;2.08;;;;;;;8.23;71.58;99133.22;1741243;80;25913;-61
2021/05/05 01:54:06;;;;;;;1.98;1.40;;;;;;;8.24;71.66;99133.14;1737317;80;26503;-62
2021/05/05 01:56:33;;;;;;;3.12;1.80;;;;;;;8.26;71.72;99139.72;1719490;80;25862;-62
2021/05/05 01:59:03;;;;;;;6.35;2.00;;;;;;;8.26;71.71;99139.25;1714065;80;27806;-62
2021/05/05 02:01:31;;;;;;;3.27;1.32;;;;;;;8.26;71.65;99135.72;1722009;80;25826;-61
2021/05/05 02:04:01;;;;;;;8.73;2.27;;;;;;;8.26;71.72;99142.39;1732573;80;26026;-62
2021/05/05 02:06:35;;;;;;;4.28;1.90;;;;;;;8.28;71.78;99138.69;1740426;80;26119;-62
2021/05/05 02:09:04;;;;;;;2.72;1.62;;;;;;;8.26;71.59;99138.39;1742372;80;25935;-62
2021/05/05 02:11:32;;;;;;;3.67;1.35;;;;;;;8.27;71.71;99134.30;1665442;84;27897;-62
2021/05/05 02:14:00;;;;;;;3.85;1.67;;;;;;;8.29;71.68;99133.73;1687202;83;25781;-62
2021/05/05 02:16:27;;;;;;;7.53;2.02;;;;;;;8.28;71.70;99132.02;1721215;80;25789;-62
2021/05/05 02:18:55;;;;;;;6.92;2.00;;;;;;;8.30;71.70;99135.92;1705824;81;26106;-62
2021/05/05 02:21:24;;;;;;;3.75;1.90;;;;;;;8.31;71.68;99137.64;1705840;82;25792;-62
2021/05/05 02:23:53;;;;;;;4.67;2.33;;;;;;;8.28;71.65;99135.16;1701027;81;27819;-62
2021/05/05 02:26:22;;;;;;;2.58;1.45;;;;;;;8.26;71.63;99140.58;1681814;83;25786;-62
2021/05/05 02:28:50;;;;;;;5.78;1.35;;;;;;;8.25;71.71;99137.53;1678510;82;26119;-62
2021/05/05 02:31:17;;;;;;;6.17;1.72;;;;;;;8.24;71.64;99135.80;1667392;84;25810;-62
2021/05/05 02:33:46;;;;;;;3.33;1.47;;;;;;;8.26;71.71;99142.39;1692211;82;26021;-62
2021/05/05 02:36:14;;;;;;;4.70;1.87;;;;;;;8.26;71.67;99138.39;1686090;82;27942;-62
2021/05/05 02:38:42;;;;;;;5.15;2.12;;;;;;;8.25;71.65;99134.00;1667134;83;25886;-62
2021/05/05 02:41:11;;;;;;;2.85;1.37;;;;;;;8.23;71.69;99130.08;1678373;82;25872;-62
2021/05/05 02:43:38;;;;;;;4.40;1.70;;;;;;;8.22;71.69;99132.84;1692148;82;26932;-62
2021/05/05 02:46:06;;;;;;;2.80;1.40;;;;;;;8.22;71.69;99123.50;1722876;80;25856;-62
2021/05/05 02:48:34;;;;;;;2.33;1.20;;;;;;;8.21;71.65;99122.64;1705202;82;27841;-62
2021/05/05 02:51:02;;;;;;;3.62;1.42;;;;;;;8.17;71.61;99125.58;1729055;80;25931;-62
2021/05/05 02:53:30;;;;;;;2.85;1.30;;;;;;;8.14;71.65;99118.13;1773782;78;25970;-62
2021/05/05 02:55:59;;;;;;;4.30;1.02;;;;;;;8.12;71.49;99121.36;1765309;78;26563;-62
2021/05/05 02:58:28;;;;;;;5.55;1.77;;;;;;;8.11;71.57;99128.98;1768638;78;25728;-62
2021/05/05 03:00:56;;;;;;;4.15;1.50;;;;;;;8.09;71.62;99121.53;1729002;80;27842;-62
2021/05/05 03:03:26;;;;;;;7.50;1.30;;;;;;;8.12;71.58;99120.50;1775233;78;25903;-62
2021/05/05 03:05:55;;;;;;;4.33;1.72;;;;;;;8.11;71.54;99128.98;1747350;80;25907;-62
2021/05/05 03:08:23;;;;;;;5.47;1.50;;;;;;;8.10;71.45;99126.40;1745065;80;26532;-62
2021/05/05 03:10:52;;;;;;;7.12;1.60;;;;;;;8.10;71.41;99129.06;1740090;80;26080;-62
2021/05/05 03:13:22;;;;;;;4.05;1.37;;;;;;;8.09;71.26;99124.20;1751755;80;27413;-62
2021/05/05 03:15:52;;;;;;;4.78;1.65;;;;;;;8.10;71.21;99120.59;1737915;80;26412;-62
2021/05/05 03:18:21;;;;;;;2.62;1.40;;;;;;;8.08;71.21;99121.15;1754633;80;25900;-62
2021/05/05 03:20:51;;;;;;;3.20;1.20;;;;;;;8.05;71.15;99119.13;1743449;80;26222;-62
2021/05/05 03:23:19;;;;;;;6.03;1.70;;;;;;;8.02;71.11;99122.84;1731848;80;26468;-62
2021/05/05 03:25:47;;;;;;;7.78;2.10;;;;;;;8.00;71.11;99118.53;1753089;80;27839;-62
2021/05/05 03:28:16;;;;;;;5.53;1.67;;;;;;;8.00;71.12;99119.87;1743229;80;25899;-62
2021/05/05 03:30:44;;;;;;;6.22;2.00;;;;;;;7.97;71.07;99118.23;1756931;80;25915;-62
2021/05/05 03:33:12;;;;;;;3.47;1.40;;;;;;;7.94;71.07;99118.88;1740263;79;25998;-62
2021/05/05 03:35:39;;;;;;;2.52;1.35;;;;;;;7.93;71.07;99123.36;1737401;80;25875;-62
2021/05/05 03:38:08;;;;;;;5.30;1.70;;;;;;;7.91;71.03;99121.25;1744453;81;27762;-62
2021/05/05 03:40:37;;;;;;;3.67;1.32;;;;;;;7.90;71.06;99124.87;1735910;80;25821;-62
2021/05/05 03:43:06;;;;;;;3.00;1.42;;;;;;;7.91;71.08;99120.39;1740826;80;25944;-62
2021/05/05 03:45:35;;;;;;;8.90;1.87;;;;;;;7.88;71.03;99118.75;1731087;81;26039;-62
2021/05/05 03:48:07;;;;;;;4.95;1.72;;;;;;;7.88;71.01;99118.75;1727209;80;25817;-62
2021/05/05 03:50:35;;;;;;;6.97;1.80;;;;;;;7.90;71.03;99118.67;1735924;80;27368;-62
2021/05/05 03:53:03;;;;;;;3.87;1.87;;;;;;;7.91;70.98;99120.39;1712100;81;25930;-62
2021/05/05 03:55:31;;;;;;;6.33;1.32;;;;;;;7.90;70.98;99118.20;1712426;81;25883;-63
2021/05/05 03:57:59;;;;;;;6.90;1.65;;;;;;;7.89;70.96;99123.14;1745194;79;26183;-63
2021/05/05 04:00:27;;;;;;;4.37;1.35;;;;;;;7.90;70.95;99126.20;1740143;81;26501;-62
2021/05/05 04:02:55;;;;;;;5.95;1.17;;;;;;;7.92;70.86;99124.78;1739562;80;27828;-63
2021/05/05 04:05:24;;;;;;;5.78;1.60;;;;;;;7.91;70.88;99125.25;1742712;80;25753;-63
2021/05/05 04:07:54;;;;;;;3.95;1.37;;;;;;;7.90;70.85;99136.02;1745974;80;25457;-63
2021/05/05 04:10:22;;;;;;;1.80;0.82;;;;;;;7.89;70.86;99127.14;1744190;81;26129;-62
2021/05/05 04:12:50;;;;;;;4.00;1.57;;;;;;;7.91;70.87;99126.59;1704299;81;25522;-63
2021/05/05 04:15:19;;;;;;;4.28;1.70;;;;;;;7.93;70.87;99116.69;1715906;81;25955;-63
2021/05/05 04:17:47;;;;;;;7.15;1.32;;;;;;;7.96;70.86;99128.52;1707550;81;25912;-63
2021/05/05 04:20:19;;;;;;;5.20;1.90;;;;;;;7.98;70.91;99125.77;1715288;80;26116;-63
2021/05/05 04:22:49;;;;;;;7.15;4.37;;;;;;;8.01;70.84;99125.59;1746819;80;26067;-63
2021/05/05 04:25:18;;;;;;;18.35;11.22;;;;;;;8.02;70.83;99121.97;1735592;80;25959;-63
2021/05/05 04:27:47;;;;;;;14.40;8.60;;;;;;;8.03;70.28;99123.22;1740749;80;27253;-63
2021/05/05 04:30:18;;;;;;;9.70;6.58;;;;;;;8.07;70.79;99127.44;1767440;80;25796;-63
2021/05/05 04:32:51;;;;;;;13.22;6.53;;;;;;;8.13;70.58;99120.88;1736113;80;25905;-60
2021/05/05 04:35:22;;;;;;;8.55;2.83;;;;;;;8.18;70.71;99125.48;1699103;82;26515;-61
2021/05/05 04:37:50;;;;;;;6.10;2.17;;;;;;;8.21;70.70;99117.77;1741842;80;25896;-61
2021/05/05 04:40:19;;;;;;;7.12;2.80;;;;;;;8.26;70.67;99126.38;1729273;80;27769;-60
2021/05/05 04:42:46;;;;;;;3.40;1.85;;;;;;;8.31;70.04;99117.63;1722146;80;25785;-60
2021/05/05 04:45:16;;;;;;;11.53;2.30;;;;;;;8.37;70.22;99119.97;1684484;81;25848;-61
2021/05/05 04:47:44;;;;;;;7.67;2.00;;;;;;;8.41;70.22;99121.51;1689466;82;26389;-60
2021/05/05 04:50:14;;;;;;;7.10;2.30;;;;;;;8.44;70.17;99130.67;1727604;81;25947;-59
2021/05/05 04:52:43;;;;;;;5.80;2.37;;;;;;;8.49;69.95;99120.58;1676363;82;27776;-60
2021/05/05 04:55:13;;;;;;;4.78;1.95;;;;;;;8.54;69.97;99125.65;1735590;80;25850;-60
2021/05/05 04:57:40;;;;;;;9.73;3.62;;;;;;;8.58;69.96;99126.72;1745941;79;25833;-59
2021/05/05 05:00:11;;;;;;;4.10;2.45;;;;;;;8.64;69.94;99125.48;1769637;79;25897;-59
2021/05/05 05:02:40;;;;;;;11.50;3.12;;;;;;;8.69;69.89;99124.27;1760214;79;25556;-60
2021/05/05 05:05:11;;;;;;;7.45;2.08;;;;;;;8.74;69.74;99130.67;1741335;79;27269;-59
2021/05/05 05:07:39;;;;;;;6.35;1.65;;;;;;;8.80;69.78;99124.95;1725960;78;25711;-58
2021/05/05 05:10:10;;;;;;;4.00;1.67;;;;;;;8.83;68.73;99135.45;1740677;79;25893;-60
2021/05/05 05:12:38;;;;;;;;;;;;;;;8.89;69.34;99129.75;1771840;79;25847;-59
2021/05/05 05:15:08;;;;;;;2.62;1.27;;;;;;;8.93;69.28;99134.42;1769040;79;26342;-59
2021/05/05 05:17:37;;;;;;;6.33;1.95;;;;;;;8.95;69.19;99116.48;1762146;79;26071;-59
2021/05/05 05:20:09;;;;;;;10.32;1.62;;;;;;;8.98;69.15;99125.66;1760930;79;26544;-59
2021/05/05 05:22:38;;;;;;;5.45;1.35;;;;;;;9.01;68.11;99114.78;1744242;79;25863;-59
2021/05/05 05:25:11;;;;;;;4.40;1.50;;;;;;;9.05;68.70;99114.97;1728418;79;25835;-59
2021/05/05 05:27:41;;;;;;;9.35;2.65;;;;;;;9.11;68.96;99128.81;1753540;79;25843;-60
2021/05/05 05:30:12;;;;;;;3.02;1.35;;;;;;;9.17;68.80;99135.59;1746916;79;27977;-60
2021/05/05 05:32:42;;;;;;;7.78;1.90;;;;;;;9.20;68.66;99124.72;1755024;79;26204;-60
2021/05/05 05:35:12;;;;;;;3.37;1.65;;;;;;;9.25;68.45;99141.81;1728987;79;27519;-60
2021/05/05 05:37:40;;;;;;;3.05;1.20;;;;;;;9.32;68.42;99136.47;1740856;79;26514;-60
2021/05/05 05:40:14;;;;;;;4.55;1.10;;;;;;;9.40;68.16;99127.48;1739305;80;25923;-60
2021/05/05 05:42:42;;;;;;;5.30;1.92;;;;;;;9.45;67.80;99128.06;1784437;79;27313;-61
2021/05/05 05:45:15;;;;;;;6.30;1.50;;;;;;;9.51;67.01;99119.65;1742663;80;26586;-60
2021/05/05 05:47:45;;;;;;;6.80;1.95;;;;;;;9.59;67.18;99132.54;1762029;79;26073;-60
2021/05/05 05:50:14;;;;;;;8.00;1.57;;;;;;;9.61;66.87;99122.60;1782675;78;26349;-60
2021/05/05 05:52:45;;;;;;;5.78;1.10;;;;;;;9.61;66.33;99117.25;1786163;78;25878;-60
2021/05/05 05:55:17;;;;;;;5.28;1.27;;;;;;;9.60;66.56;99116.87;1785600;79;28405;-59
2021/05/05 05:57:52;;;;;;;3.37;1.35;;;;;;;9.61;66.69;99109.22;1768069;79;26139;-61
2021/05/05 06:00:21;;;;;;;6.05;1.35;;;;;;;9.62;66.11;99110.94;1746111;80;25728;-60
2021/05/05 06:02:50;;;;;;;7.20;1.77;;;;;;;9.61;66.47;99121.27;1769258;79;26016;-62
2021/05/05 06:05:18;;;;;;;6.22;1.30;;;;;;;9.59;66.17;99130.72;1784901;79;25831;-60
2021/05/05 06:07:49;;;;;;;8.68;1.50;;;;;;;9.61;66.14;99123.94;1807485;77;27571;-60
2021/05/05 06:10:16;;;;;;;6.28;1.72;;;;;;;9.62;66.15;99125.66;1793805;78;26659;-60
2021/05/05 06:12:44;;;;;;;8.25;1.95;;;;;;;9.63;66.02;99133.58;1800738;77;26357;-60
2021/05/05 06:15:14;;;;;;;7.15;1.47;;;;;;;9.65;65.50;99139.70;1793805;77;26518;-60
2021/05/05 06:17:42;;;;;;;7.47;1.80;;;;;;;9.68;65.59;99134.63;1786528;77;25887;-61
2021/05/05 06:20:13;;;;;;;6.45;1.70;;;;;;;9.73;65.60;99145.90;1812812;77;28511;-61
2021/05/05 06:22:44;;;;;;;4.35;1.32;;;;;;;9.73;64.32;99161.47;1752908;79;25875;-61
2021/05/05 06:25:12;;;;;;;5.40;1.40;;;;;;;9.72;65.18;99148.20;1823565;77;25885;-61
2021/05/05 06:27:41;;;;;;;5.55;1.90;;;;;;;9.72;64.96;99138.83;1815711;77;26182;-60
2021/05/05 06:30:14;;;;;;;4.05;1.45;;;;;;;9.73;64.97;99136.05;1789981;77;25912;-60
2021/05/05 06:32:45;;;;;;;5.95;1.50;;;;;;;9.76;64.88;99125.16;1809235;77;27611;-61
2021/05/05 06:35:13;;;;;;;9.48;1.35;;;;;;;9.82;64.32;99129.25;1784671;77;26125;-60
2021/05/05 06:37:41;;;;;;;8.90;2.00;;;;;;;9.86;64.50;99143.30;1804331;77;26137;-60
2021/05/05 06:40:11;;;;;;;4.33;1.45;;;;;;;9.92;64.31;99144.23;1808412;76;25972;-60
2021/05/05 06:42:40;;;;;;;5.58;1.90;;;;;;;9.99;63.32;99154.45;1809438;77;26259;-60
2021/05/05 06:45:10;;;;;;;9.90;1.67;;;;;;;9.97;63.05;99181.80;1801953;77;27799;-60
2021/05/05 06:47:40;;;;;;;6.25;1.60;;;;;;;9.96;63.26;99155.98;1797329;77;25880;-60
2021/05/05 06:50:09;;;;;;;7.85;1.98;;;;;;;9.99;62.21;99166.50;1778921;78;25762;-60
2021/05/05 06:52:38;;;;;;;6.40;2.10;;;;;;;10.04;62.82;99163.52;1759426;77;26156;-61
2021/05/05 06:55:10;;;;;;;10.30;2.42;;;;;;;10.18;62.77;99168.84;1792079;78;25799;-60
2021/05/05 06:57:38;;;;;;;12.03;2.00;;;;;;;10.32;61.98;99163.47;1756362;77;28631;-60
2021/05/05 07:00:08;;;;;;;6.85;1.32;;;;;;;10.43;62.55;99149.82;1807019;77;26202;-60
2021/05/05 07:02:36;;;;;;;10.32;2.05;;;;;;;10.53;62.24;99142.41;1793846;77;25898;-60
2021/05/05 07:05:05;;;;;;;4.30;1.42;;;;;;;10.68;61.80;99152.58;1776313;77;26487;-60
2021/05/05 07:07:33;;;;;;;8.05;1.92;;;;;;;10.81;61.58;99149.44;1771116;77;25792;-60
2021/05/05 07:10:03;;;;;;;7.62;1.62;;;;;;;10.97;61.85;99137.19;1799439;77;27769;-60
2021/05/05 07:12:34;;;;;;;6.95;1.62;;;;;;;11.16;60.85;99145.68;1797086;77;25900;-60
2021/05/05 07:15:05;;;;;;;8.08;1.72;;;;;;;11.24;60.42;99137.95;1816303;77;35374;-59
2021/05/05 07:17:33;;;;;;;8.53;2.40;;;;;;;11.19;60.11;99126.69;1788899;78;26328;-60
2021/05/05 07:20:03;;;;;;;6.05;1.60;;;;;;;11.21;60.30;99129.27;1799263;78;25772;-60
2021/05/05 07:22:32;;;;;;;5.37;1.95;;;;;;;11.32;59.83;99124.00;1798317;77;27728;-60
2021/05/05 07:25:00;;;;;;;5.83;1.62;;;;;;;11.42;59.87;99118.36;1730898;79;25850;-60
2021/05/05 07:27:27;;;;;;;4.37;1.77;;;;;;;11.52;59.45;99144.06;1731867;80;25809;-60
2021/05/05 07:29:57;;;;;;;6.95;1.85;;;;;;;11.58;59.40;99138.25;1738789;80;26076;-60
2021/05/05 07:32:25;;;;;;;7.05;1.82;;;;;;;11.68;58.93;99135.28;1747933;79;25771;-60
2021/05/05 07:34:55;;;;;;;7.00;1.90;;;;;;;11.74;58.78;99129.96;1727971;80;27814;-60
2021/05/05 07:38:09;;;;;;;4.10;1.97;;;;;;;11.81;58.13;99133.47;1729364;81;26300;-60
2021/05/05 07:40:50;;;;;;;4.95;1.60;;;;;;;11.88;58.29;99136.08;1717562;82;25913;-61
2021/05/05 07:43:32;;;;;;;5.17;2.10;;;;;;;11.87;57.18;99143.77;1726430;80;25961;-60
2021/05/05 07:48:22;;;;;;;7.97;2.62;;;;;;;11.74;56.45;99133.50;1704019;81;27974;-61
2021/05/05 07:50:41;;;;;;;4.65;1.32;;;;;;;11.79;57.01;99135.89;1722714;81;25792;-60
2021/05/05 07:53:12;;;;;;;5.03;1.55;;;;;;;11.86;56.46;99151.44;1735746;81;25871;-60
2021/05/05 07:55:40;;;;;;;7.62;2.08;;;;;;;11.76;55.18;99127.54;1734845;81;26709;-61
2021/05/05 07:58:07;;;;;;;12.13;1.67;;;;;;;11.68;54.00;99129.44;1711980;81;25993;-61
2021/05/05 08:00:38;;;;;;;6.30;1.65;;;;;;;11.71;55.10;99132.38;1691593;82;25952;-61
2021/05/05 08:03:06;;;;;;;6.57;2.00;;;;;;;11.71;55.64;99129.70;1738087;80;25664;-61
2021/05/05 08:05:37;;;;;;;10.50;2.30;;;;;;;11.66;55.44;99136.73;1802672;78;26663;-70
2021/05/05 08:08:05;;;;;;;5.25;1.37;;;;;;;11.63;55.34;99151.72;1763234;80;25922;-61
2021/05/05 08:10:33;;;;;;;11.15;1.98;;;;;;;11.58;55.30;99150.33;1779378;78;25890;-61
2021/05/05 08:13:03;;;;;;;4.90;1.67;;;;;;;11.52;55.06;99143.58;1806083;78;26683;-61
2021/05/05 08:15:34;;;;;;;7.90;2.10;;;;;;;11.47;54.75;99164.50;1780374;78;26550;-61
2021/05/05 08:18:06;;;;;;;7.47;1.65;;;;;;;11.48;54.32;99138.53;1773012;79;26348;-61
2021/05/05 08:20:35;;;;;;;2.62;1.75;;;;;;;11.52;53.97;99140.89;1797081;78;25915;-61
2021/05/05 08:23:06;;;;;;;9.90;2.20;;;;;;;11.56;53.12;99147.75;1757170;79;25981;-61
2021/05/05 08:25:35;;;;;;;6.85;2.22;;;;;;;11.54;53.11;99157.74;1781993;79;27566;-61
2021/05/05 08:28:05;;;;;;;8.58;1.75;;;;;;;11.57;52.80;99142.77;1766486;79;25804;-61
2021/05/05 08:30:35;;;;;;;9.68;1.50;;;;;;;11.66;52.95;99138.56;1720843;80;25861;-59
2021/05/05 08:33:04;;;;;;;6.25;1.37;;;;;;;11.77;51.55;99148.08;1730896;81;25853;-61
2021/05/05 08:35:32;;;;;;;6.55;1.45;;;;;;;11.75;52.16;99151.33;1779862;79;25811;-61
2021/05/05 08:38:00;;;;;;;7.75;1.65;;;;;;;11.73;52.06;99135.81;1774075;79;27663;-61
2021/05/05 08:40:28;;;;;;;7.95;1.65;;;;;;;11.83;52.23;99145.44;1800244;78;26257;-62
2021/05/05 08:42:56;;;;;;;3.55;1.60;;;;;;;12.03;52.17;99136.30;1804039;78;25802;-62
2021/05/05 08:45:28;;;;;;;5.28;1.50;;;;;;;12.20;48.81;99128.83;1797560;78;25874;-61
2021/05/05 08:48:02;;;;;;;11.38;1.75;;;;;;;12.32;50.77;99129.27;1779204;79;26058;-70
2021/05/05 08:50:33;;;;;;;7.72;1.70;;;;;;;12.43;50.71;99125.29;1769364;79;25972;-61
2021/05/05 08:53:01;;;;;;;7.05;1.40;;;;;;;12.50;51.03;99123.00;1768908;78;26535;-61
2021/05/05 08:55:32;;;;;;;6.08;1.35;;;;;;;12.56;51.03;99150.76;1749582;79;25866;-62
2021/05/05 08:58:02;;;;;;;4.47;1.30;;;;;;;12.56;50.56;99159.67;1774556;77;26230;-62
2021/05/05 09:00:36;;;;;;;3.85;1.10;;;;;;;12.38;48.09;99140.05;1781750;78;26383;-61
2021/05/05 09:03:07;;;;;;;7.33;1.32;;;;;;;12.24;48.76;99135.20;1787217;77;27366;-61
2021/05/05 09:06:01;;;;;;;4.00;1.32;;;;;;;12.18;49.06;99134.80;1769396;80;25806;-61
2021/05/05 09:08:31;;;;;;;4.42;1.42;;;;;;;12.15;49.25;99134.55;1785008;79;25955;-62
2021/05/05 09:11:08;;;;;;;11.10;1.95;;;;;;;12.21;48.83;99137.27;1776279;79;25929;-62
2021/05/05 09:13:52;;;;;;;5.40;1.80;;;;;;;12.21;48.84;99134.58;1774296;79;25759;-62
2021/05/05 09:16:30;;;;;;;8.40;1.30;;;;;;;12.33;48.86;99122.92;1755408;79;27958;-61
2021/05/05 09:19:13;;;;;;;6.20;1.47;;;;;;;12.55;49.47;99124.85;1771397;78;25855;-62
2021/05/05 09:21:42;;;;;;;4.83;1.22;;;;;;;12.58;47.51;99118.76;1773248;78;26443;-61
2021/05/05 09:24:29;;;;;;;4.28;1.67;;;;;;;12.59;48.63;99127.19;1774367;78;25986;-63
2021/05/05 09:27:06;;;;;;;10.13;1.90;;;;;;;12.71;48.66;99136.16;1782394;77;25846;-64
2021/05/05 09:29:49;;;;;;;3.85;1.10;;;;;;;12.75;48.57;99140.81;1772335;78;26495;-68
2021/05/05 09:32:22;;;;;;;6.30;1.40;;;;;;;12.68;47.60;99145.80;1784895;79;25737;-63
2021/05/05 09:35:06;;;;;;;6.35;1.50;;;;;;;12.58;46.83;99134.89;1794999;78;25867;-66
2021/05/05 09:37:33;;;;;;;4.25;1.85;;;;;;;12.44;47.40;99139.09;1768699;77;26510;-66
2021/05/05 09:40:10;;;;;;;7.35;1.50;;;;;;;12.43;47.17;99130.66;1709003;82;25857;-69
2021/05/05 09:42:40;;;;;;;9.70;1.52;;;;;;;12.33;46.42;99150.64;1704843;82;28423;-61
2021/05/05 09:45:12;;;;;;;6.40;1.32;;;;;;;12.23;46.98;99127.27;1709619;82;26570;-65
2021/05/05 09:48:01;;;;;;;6.05;1.52;;;;;;;12.20;46.33;99138.23;1708462;82;25886;-62
2021/05/05 09:50:37;;;;;;;7.08;1.62;;;;;;;12.09;47.10;99120.71;1703591;82;26785;-63
2021/05/05 09:53:23;;;;;;;11.12;1.80;;;;;;;12.18;47.28;99117.34;1703646;81;25781;-63
2021/05/05 09:56:00;;;;;;;4.10;1.87;;;;;;;12.23;46.70;99124.58;1738033;80;28761;-64
2021/05/05 09:58:38;;;;;;;4.67;1.45;;;;;;;12.32;47.27;99113.14;1742326;79;25432;-63
2021/05/05 10:01:14;;;;;;;4.78;1.37;;;;;;;12.40;46.42;99115.25;1776628;77;25812;-62
2021/05/05 10:03:52;;;;;;;5.85;2.12;;;;;;;12.45;47.15;99127.86;1776739;79;25859;-62
2021/05/05 10:06:33;;;;;;;4.42;1.10;;;;;;;12.52;47.10;99107.62;1772704;78;25792;-62
2021/05/05 10:09:13;;;;;;;7.08;1.45;;;;;;;12.61;45.82;99107.77;1802886;77;28958;-64
2021/05/05 10:11:45;;;;;;;6.92;1.90;;;;;;;12.63;45.63;99115.72;1787886;77;26379;-66
2021/05/05 10:14:19;;;;;;;7.92;1.57;;;;;;;12.76;46.21;99103.55;1746691;80;25899;-65
2021/05/05 10:16:52;;;;;;;8.65;2.00;;;;;;;12.95;46.34;99103.35;1785603;78;25849;-63
2021/05/05 10:19:25;;;;;;;11.00;1.47;;;;;;;13.14;46.19;99116.68;1782767;79;25846;-60
2021/05/05 10:22:03;;;;;;;9.90;2.67;;;;;;;13.28;45.56;99099.86;1771220;78;27438;-63
2021/05/05 10:24:32;;;;;;;6.03;1.98;;;;;;;13.31;45.01;99098.75;1754293;79;25832;-62
2021/05/05 10:27:02;;;;;;;4.03;1.32;;;;;;;13.45;45.66;99097.66;1783404;77;25829;-63
2021/05/05 10:29:32;;;;;;;4.05;1.45;;;;;;;13.55;44.72;99110.75;1774380;78;26917;-63
2021/05/05 10:32:05;;;;;;;5.92;1.22;;;;;;;13.55;44.89;99101.33;1778523;78;25944;-63
2021/05/05 10:34:33;;;;;;;4.42;1.22;;;;;;;13.62;44.29;99106.10;1772562;80;28091;-64
2021/05/05 10:37:05;;;;;;;2.20;1.00;;;;;;;13.64;43.38;99098.75;1778073;78;25868;-63
2021/05/05 10:39:43;;;;;;;5.78;1.05;;;;;;;13.73;42.29;99091.77;1779766;77;25875;-63
2021/05/05 10:42:19;;;;;;;9.25;1.65;;;;;;;13.85;43.42;99100.20;1780109;78;26674;-63
2021/05/05 10:44:59;;;;;;;9.03;1.62;;;;;;;13.94;42.62;99116.11;1775229;78;25778;-62
2021/05/05 10:47:34;;;;;;;3.22;1.52;;;;;;;13.74;42.26;99092.63;1787051;78;27278;-62
2021/05/05 10:50:08;;;;;;;10.38;2.60;;;;;;;13.67;42.96;99101.69;1804737;77;25810;-64
2021/05/05 10:52:47;;;;;;;3.75;1.50;;;;;;;13.75;43.20;99106.45;1775630;77;26514;-62
2021/05/05 10:55:19;;;;;;;9.88;1.30;;;;;;;13.74;42.95;99107.44;1807768;77;26608;-63
2021/05/05 10:58:04;;;;;;;7.53;1.60;;;;;;;13.53;42.33;99120.30;1776658;77;25911;-64
2021/05/05 11:00:57;;;;;;;3.90;1.70;;;;;;;13.35;42.73;99110.98;1816546;77;28646;-61
2021/05/05 11:03:50;;;;;;;5.95;1.47;;;;;;;13.30;42.72;99108.66;1796687;78;25855;-64
2021/05/05 11:06:38;;;;;;;6.15;1.52;;;;;;;13.29;42.14;99109.64;1794619;78;25811;-62
2021/05/05 11:09:17;;;;;;;5.45;1.35;;;;;;;13.37;43.00;99117.59;1719048;81;25794;-63
2021/05/05 11:11:52;;;;;;;5.17;1.50;;;;;;;13.46;41.16;99120.91;1700775;80;26309;-63
2021/05/05 11:14:28;;;;;;;7.70;1.57;;;;;;;13.59;42.26;99114.91;1782112;78;25801;-63
2021/05/05 11:17:02;;;;;;;3.25;1.30;;;;;;;13.93;42.24;99112.55;1785143;77;25864;-63
2021/05/05 11:19:42;;;;;;;11.83;1.50;;;;;;;14.14;42.35;99106.39;1817612;77;25969;-64
2021/05/05 11:22:26;;;;;;;4.47;1.72;;;;;;;14.07;40.45;99114.12;1780425;78;25970;-63
2021/05/05 11:24:54;;;;;;;11.88;1.47;;;;;;;13.94;41.02;99117.45;1802019;77;25802;-64
2021/05/05 11:27:47;;;;;;;4.45;1.50;;;;;;;13.89;41.02;99109.75;1787371;77;27576;-64
2021/05/05 11:30:42;;;;;;;4.80;1.45;;;;;;;13.87;41.21;99113.55;1778757;78;25806;-64
2021/05/05 11:33:11;;;;;;;8.80;1.67;;;;;;;13.71;40.64;99113.93;1797989;78;25873;-64
2021/05/05 11:35:42;;;;;;;9.55;1.47;;;;;;;13.49;40.91;99113.94;1766120;77;26443;-65
2021/05/05 11:38:19;;;;;;;9.20;1.87;;;;;;;13.37;41.63;99117.11;1786038;78;25829;-64
2021/05/05 11:40:57;;;;;;;8.10;1.82;;;;;;;13.28;41.33;99123.22;1766037;77;26175;-64
2021/05/05 11:43:27;;;;;;;9.05;2.60;;;;;;;13.13;41.82;99119.86;1786699;79;26553;-63
2021/05/05 11:46:00;;;;;;;8.30;1.52;;;;;;;13.22;42.66;99121.86;1797139;77;25886;-64
2021/05/05 11:48:35;;;;;;;15.63;1.70;;;;;;;13.37;42.87;99123.84;1760982;79;26386;-62
2021/05/05 11:51:24;;;;;;;15.10;5.97;;;;;;;13.45;42.28;99121.88;1751045;80;25862;-62
2021/05/05 11:53:53;;;;;;;9.80;3.17;;;;;;;13.60;42.33;99128.74;1755227;79;27954;-62
2021/05/05 11:56:26;;;;;;;16.48;6.58;;;;;;;13.81;42.96;99135.09;1756225;79;25855;-63